createdAt,value
2022-07-26T08:54:43.075Z,23.870001
2022-07-26T08:56:08.158Z,23.870001
2022-07-26T08:57:03.361Z,23.870001
2022-07-26T08:58:13.274Z,23.870001
2022-07-26T08:59:23.035Z,23.879999
2022-07-26T09:00:30.287Z,23.879999
2022-07-26T09:01:39.979Z,23.879999
2022-07-26T09:02:48.783Z,23.889999
2022-07-26T09:03:57.477Z,23.9
2022-07-26T09:05:07.127Z,23.91
2022-07-26T09:06:14.728Z,23.92
2022-07-26T09:07:24.363Z,23.93
2022-07-26T09:08:32.976Z,23.940001
2022-07-26T09:09:41.576Z,23.950001
2022-07-26T09:10:51.183Z,23.969999
2022-07-26T09:12:00.795Z,23.98
2022-07-26T09:13:09.396Z,24
2022-07-26T09:14:19.013Z,24.01
2022-07-26T09:15:26.586Z,24.030001
2022-07-26T09:16:39.781Z,24.040001
2022-07-26T09:17:45.840Z,24.059999
2022-07-26T09:18:53.438Z,24.07
2022-07-26T09:20:03.009Z,24.09
2022-07-26T09:21:10.602Z,24.1
2022-07-26T09:22:20.206Z,24.120001
2022-07-26T09:23:29.804Z,24.129999
2022-07-26T09:24:37.388Z,24.15
2022-07-26T09:25:46.978Z,24.16
2022-07-26T09:26:55.625Z,24.18
2022-07-26T09:28:03.267Z,24.190001
2022-07-26T09:29:13.521Z,24.209999
2022-07-26T09:30:21.465Z,24.219999
2022-07-26T09:31:30.093Z,24.24
2022-07-26T09:32:39.750Z,24.25
2022-07-26T09:33:47.329Z,24.26
2022-07-26T09:34:58.708Z,24.280001
2022-07-26T09:36:08.194Z,24.290001
2022-07-26T09:37:15.770Z,24.299999
2022-07-26T09:38:25.380Z,24.32
2022-07-26T09:39:34.375Z,24.33
2022-07-26T09:40:42.515Z,24.34
2022-07-26T09:42:11.098Z,24.35
2022-07-26T09:43:03.611Z,24.360001
2022-07-26T09:44:13.613Z,24.379999
2022-07-26T09:45:21.772Z,24.389999
2022-07-26T09:46:30.404Z,24.4
2022-07-26T09:47:39.972Z,24.42
2022-07-26T09:49:58.143Z,24.440001
2022-07-26T09:51:08.708Z,24.450001
2022-07-26T09:52:18.305Z,24.459999
2022-07-26T09:53:27.883Z,24.469999
2022-07-26T09:54:36.492Z,24.48
2022-07-26T09:55:44.995Z,24.49
2022-07-26T09:56:53.699Z,24.5
2022-07-26T09:58:01.290Z,24.51
2022-07-26T09:59:09.895Z,24.52
2022-07-26T10:00:19.506Z,24.530001
2022-07-26T10:01:29.191Z,24.540001
2022-07-26T10:02:38.807Z,24.549999
2022-07-26T10:03:47.382Z,24.559999
2022-07-26T10:04:54.967Z,24.57
2022-07-26T10:06:03.574Z,24.58
2022-07-26T10:07:12.186Z,24.59
2022-07-26T10:08:20.755Z,24.6
2022-07-26T10:09:30.353Z,24.610001
2022-07-26T10:10:37.956Z,24.610001
2022-07-26T10:11:47.572Z,24.620001
2022-07-26T10:12:57.886Z,24.629999
2022-07-26T10:14:04.733Z,24.639999
2022-07-26T10:15:14.360Z,24.65
2022-07-26T10:16:23.987Z,24.66
2022-07-26T10:17:35.060Z,24.66
2022-07-26T10:18:43.194Z,24.67
2022-07-26T10:19:51.782Z,24.68
2022-07-26T10:21:01.422Z,24.690001
2022-07-26T10:22:09.998Z,24.690001
2022-07-26T10:23:17.688Z,24.700001
2022-07-26T10:24:28.282Z,24.709999
2022-07-26T10:25:35.872Z,24.719999
2022-07-26T10:26:44.604Z,24.73
2022-07-26T10:27:54.082Z,24.73
2022-07-26T10:29:02.662Z,24.74
2022-07-26T10:30:12.337Z,24.75
2022-07-26T10:31:20.958Z,24.75
2022-07-26T10:32:29.506Z,24.76
2022-07-26T10:33:39.118Z,24.77
2022-07-26T10:34:48.880Z,24.77
2022-07-26T10:35:57.641Z,24.780001
2022-07-26T10:37:07.237Z,24.780001
2022-07-26T10:38:16.006Z,24.790001
2022-07-26T10:39:23.569Z,24.790001
2022-07-26T10:40:33.212Z,24.799999
2022-07-26T10:41:41.777Z,24.809999
2022-07-26T10:42:51.097Z,24.809999
2022-07-26T10:44:01.676Z,24.82
2022-07-26T10:45:09.286Z,24.82
2022-07-26T10:46:19.128Z,24.83
2022-07-26T10:47:26.443Z,24.83
2022-07-26T10:48:36.058Z,24.84
2022-07-26T10:49:45.720Z,24.84
2022-07-26T10:50:54.324Z,24.85
2022-07-26T10:52:03.987Z,24.860001
2022-07-26T10:53:13.557Z,24.860001
2022-07-26T10:54:22.141Z,24.870001
2022-07-26T10:55:31.840Z,24.870001
2022-07-26T10:56:41.488Z,24.879999
2022-07-26T10:57:49.152Z,24.879999
2022-07-26T10:58:58.751Z,24.889999
2022-07-26T11:00:07.358Z,24.889999
2022-07-26T11:01:15.978Z,24.9
2022-07-26T11:02:25.631Z,24.91
2022-07-26T11:03:38.322Z,24.91
2022-07-26T11:04:43.126Z,24.92
2022-07-26T11:05:51.740Z,24.93
2022-07-26T11:06:59.673Z,24.93
2022-07-26T11:08:09.249Z,24.940001
2022-07-26T11:09:17.838Z,24.940001
2022-07-26T11:10:27.406Z,24.950001
2022-07-26T11:11:37.019Z,24.950001
2022-07-26T11:12:47.610Z,24.959999
2022-07-26T11:13:57.205Z,24.969999
2022-07-26T11:15:05.780Z,24.969999
2022-07-26T11:16:14.410Z,24.98
2022-07-26T11:17:24.140Z,24.99
2022-07-26T11:18:33.753Z,24.99
2022-07-26T11:19:42.502Z,25
2022-07-26T11:20:52.199Z,25.01
2022-07-26T11:21:59.781Z,25.01
2022-07-26T11:23:09.399Z,25.02
2022-07-26T11:24:18.997Z,25.02
2022-07-26T11:25:26.601Z,25.030001
2022-07-26T11:26:36.186Z,25.040001
2022-07-26T11:27:43.808Z,25.040001
2022-07-26T11:28:52.430Z,25.049999
2022-07-26T11:30:03.038Z,25.049999
2022-07-26T11:31:10.659Z,25.059999
2022-07-26T11:32:20.541Z,25.07
2022-07-26T11:33:29.800Z,25.07
2022-07-26T11:34:37.423Z,25.08
2022-07-26T11:35:47.067Z,25.08
2022-07-26T11:36:56.668Z,25.09
2022-07-26T11:38:11.999Z,25.1
2022-07-26T11:39:15.921Z,25.1
2022-07-26T11:40:24.596Z,25.110001
2022-07-26T11:41:34.673Z,25.110001
2022-07-26T11:42:42.745Z,25.120001
2022-07-26T11:43:53.080Z,25.120001
2022-07-26T11:45:03.668Z,25.129999
2022-07-26T11:46:12.313Z,25.129999
2022-07-26T11:47:25.167Z,25.129999
2022-07-26T11:48:31.548Z,25.139999
2022-07-26T11:49:52.638Z,25.139999
2022-07-26T11:50:49.691Z,25.139999
2022-07-26T11:51:58.329Z,25.139999
2022-07-26T11:53:05.926Z,25.139999
2022-07-26T11:54:15.517Z,25.15
2022-07-26T11:55:24.218Z,25.15
2022-07-26T11:56:33.781Z,25.15
2022-07-26T11:57:41.382Z,25.15
2022-07-26T11:58:49.981Z,25.15
2022-07-26T11:59:58.604Z,25.15
2022-07-26T12:01:07.199Z,25.15
2022-07-26T12:02:15.885Z,25.15
2022-07-26T12:03:25.484Z,25.139999
2022-07-26T12:04:33.675Z,25.139999
2022-07-26T12:05:44.069Z,25.139999
2022-07-26T12:06:52.606Z,25.129999
2022-07-26T12:08:02.254Z,25.129999
2022-07-26T12:09:11.901Z,25.120001
2022-07-26T12:10:20.898Z,25.120001
2022-07-26T12:11:28.525Z,25.120001
2022-07-26T12:12:38.129Z,25.110001
2022-07-26T12:13:55.194Z,25.110001
2022-07-26T12:14:56.662Z,25.110001
2022-07-26T12:16:07.306Z,25.110001
2022-07-26T12:17:15.911Z,25.110001
2022-07-26T12:18:24.716Z,25.110001
2022-07-26T12:19:33.282Z,25.110001
2022-07-26T12:20:41.983Z,25.110001
2022-07-26T12:21:52.675Z,25.110001
2022-07-26T12:23:00.380Z,25.110001
2022-07-26T12:24:10.344Z,25.110001
2022-07-26T12:25:19.677Z,25.110001
2022-07-26T12:26:29.324Z,25.110001
2022-07-26T12:27:39.122Z,25.110001
2022-07-26T12:28:47.731Z,25.110001
2022-07-26T12:29:56.671Z,25.110001
2022-07-26T12:31:06.435Z,25.110001
2022-07-26T12:32:16.001Z,25.110001
2022-07-26T12:33:23.571Z,25.1
2022-07-26T12:34:33.171Z,25.1
2022-07-26T12:35:41.778Z,25.1
2022-07-26T12:36:50.454Z,25.09
2022-07-26T12:38:00.241Z,25.09
2022-07-26T12:39:07.876Z,25.08
2022-07-26T12:40:16.491Z,25.08
2022-07-26T12:41:26.105Z,25.07
2022-07-26T12:42:34.543Z,25.059999
2022-07-26T12:43:44.264Z,25.059999
2022-07-26T12:44:53.910Z,25.059999
2022-07-26T12:46:01.795Z,25.059999
2022-07-26T12:47:11.245Z,25.049999
2022-07-26T12:48:20.351Z,25.049999
2022-07-26T12:49:29.600Z,25.049999
2022-07-26T12:50:40.638Z,25.049999
2022-07-26T12:51:50.479Z,25.049999
2022-07-26T12:53:00.102Z,25.049999
2022-07-26T12:54:09.372Z,25.040001
2022-07-26T12:55:17.776Z,25.040001
2022-07-26T12:56:27.612Z,25.040001
2022-07-26T12:57:36.801Z,25.040001
2022-07-26T12:58:44.850Z,25.040001
2022-07-26T12:59:54.444Z,25.040001
2022-07-26T13:01:02.242Z,25.040001
2022-07-26T13:02:11.988Z,25.040001
2022-07-26T13:03:20.954Z,25.040001
2022-07-26T13:04:30.159Z,25.040001
2022-07-26T13:05:39.663Z,25.040001
2022-07-26T13:06:49.070Z,25.040001
2022-07-26T13:08:00.367Z,25.040001
2022-07-26T13:09:10.233Z,25.040001
2022-07-26T13:10:34.839Z,25.040001
2022-07-26T13:11:28.510Z,25.040001
2022-07-26T13:12:37.344Z,25.040001
2022-07-26T13:13:44.929Z,25.040001
2022-07-26T13:14:55.592Z,25.040001
2022-07-26T13:16:06.742Z,25.040001
2022-07-26T13:17:13.697Z,25.040001
2022-07-26T13:18:23.194Z,25.040001
2022-07-26T13:19:31.915Z,25.040001
2022-07-26T13:20:41.543Z,25.040001
2022-07-26T13:21:52.918Z,25.040001
2022-07-26T13:22:57.792Z,25.040001
2022-07-26T13:24:07.612Z,25.040001
2022-07-26T13:25:18.157Z,25.040001
2022-07-26T13:26:27.759Z,25.040001
2022-07-26T13:27:42.851Z,25.040001
2022-07-26T13:28:49.857Z,25.040001
2022-07-26T13:29:58.507Z,25.040001
2022-07-26T13:31:08.231Z,25.040001
2022-07-26T13:32:17.854Z,25.040001
2022-07-26T13:33:27.437Z,25.040001
2022-07-26T13:34:35.445Z,25.040001
2022-07-26T13:35:43.793Z,25.030001
2022-07-26T13:36:54.141Z,25.030001
2022-07-26T13:38:03.334Z,25.030001
2022-07-26T13:39:13.393Z,25.030001
2022-07-26T13:40:23.610Z,25.030001
2022-07-26T13:41:32.515Z,25.030001
2022-07-26T13:42:42.114Z,25.030001
2022-07-26T13:43:49.709Z,25.030001
2022-07-26T13:44:58.704Z,25.02
2022-07-26T13:46:08.311Z,25.030001
2022-07-26T13:47:15.927Z,25.030001
2022-07-26T13:48:25.540Z,25.030001
2022-07-26T13:49:34.296Z,25.030001
2022-07-26T13:50:42.817Z,25.030001
2022-07-26T13:51:52.451Z,25.030001
2022-07-26T13:53:01.058Z,25.030001
2022-07-26T13:54:09.852Z,25.02
2022-07-26T13:55:19.358Z,25.02
2022-07-26T13:56:27.054Z,25.02
2022-07-26T13:57:39.292Z,25.02
2022-07-26T13:58:47.265Z,25.02
2022-07-26T13:59:54.834Z,25.02
2022-07-26T14:01:04.488Z,25.02
2022-07-26T14:02:12.113Z,25.02
2022-07-26T14:03:21.787Z,25.01
2022-07-26T14:04:32.266Z,25.01
2022-07-26T14:05:40.878Z,25.01
2022-07-26T14:06:50.507Z,25.01
2022-07-26T14:07:59.132Z,25.01
2022-07-26T14:09:10.531Z,25
2022-07-26T14:10:16.405Z,25
2022-07-26T14:11:25.020Z,25
2022-07-26T14:12:33.612Z,24.99
2022-07-26T14:13:43.278Z,24.99
2022-07-26T14:14:52.018Z,24.99
2022-07-26T14:16:00.619Z,24.99
2022-07-26T14:17:17.217Z,24.99
2022-07-26T14:18:26.058Z,24.99
2022-07-26T14:19:36.501Z,24.98
2022-07-26T14:20:44.446Z,24.98
2022-07-26T14:21:59.048Z,24.969999
2022-07-26T14:23:03.559Z,24.969999
2022-07-26T14:24:12.641Z,24.969999
2022-07-26T14:25:22.532Z,24.959999
2022-07-26T14:26:33.210Z,24.959999
2022-07-26T14:27:40.945Z,24.959999
2022-07-26T14:28:50.678Z,24.950001
2022-07-26T14:29:59.375Z,24.950001
2022-07-26T14:31:06.970Z,24.950001
2022-07-26T14:32:21.146Z,24.950001
2022-07-26T14:33:27.539Z,24.950001
2022-07-26T14:34:37.156Z,24.950001
2022-07-26T14:35:47.524Z,24.950001
2022-07-26T14:36:56.161Z,24.940001
2022-07-26T14:38:07.541Z,24.940001
2022-07-26T14:39:18.198Z,24.940001
2022-07-26T14:40:26.390Z,24.940001
2022-07-26T14:41:35.986Z,24.940001
2022-07-26T14:42:44.812Z,24.940001
2022-07-26T14:43:55.512Z,24.940001
2022-07-26T14:45:02.080Z,24.940001
2022-07-26T14:46:10.724Z,24.93
2022-07-26T14:47:19.427Z,24.93
2022-07-26T14:48:52.112Z,24.93
2022-07-26T14:49:39.715Z,24.93
2022-07-26T14:51:08.470Z,24.93
2022-07-26T14:51:59.930Z,24.93
2022-07-26T14:53:08.532Z,24.93
2022-07-26T14:54:18.268Z,24.93
2022-07-26T14:55:25.900Z,24.93
2022-07-26T14:56:34.515Z,24.93
2022-07-26T14:57:44.132Z,24.93
2022-07-26T14:58:52.988Z,24.93
2022-07-26T15:00:02.623Z,24.92
2022-07-26T15:01:11.586Z,24.93
2022-07-26T15:02:19.187Z,24.93
2022-07-26T15:03:28.708Z,24.93
2022-07-26T15:04:36.289Z,24.93
2022-07-26T15:05:45.040Z,24.93
2022-07-26T15:06:54.674Z,24.93
2022-07-26T15:08:05.898Z,24.93
2022-07-26T15:09:11.929Z,24.93
2022-07-26T15:10:20.621Z,24.93
2022-07-26T15:11:29.170Z,24.93
2022-07-26T15:12:37.761Z,24.93
2022-07-26T15:13:45.375Z,24.93
2022-07-26T15:14:53.948Z,24.93
2022-07-26T15:16:03.594Z,24.940001
2022-07-26T15:17:12.459Z,24.940001
2022-07-26T15:18:22.047Z,24.940001
2022-07-26T15:19:31.830Z,24.940001
2022-07-26T15:20:39.404Z,24.940001
2022-07-26T15:21:49.012Z,24.950001
2022-07-26T15:22:57.517Z,24.950001
2022-07-26T15:24:06.101Z,24.950001
2022-07-26T15:25:15.855Z,24.950001
2022-07-26T15:26:24.512Z,24.950001
2022-07-26T15:27:34.186Z,24.950001
2022-07-26T15:28:42.773Z,24.950001
2022-07-26T15:29:51.190Z,24.950001
2022-07-26T15:31:00.732Z,24.959999
2022-07-26T15:32:08.633Z,24.959999
2022-07-26T15:33:17.184Z,24.959999
2022-07-26T15:34:26.766Z,24.959999
2022-07-26T15:35:35.345Z,24.959999
2022-07-26T15:36:44.986Z,24.959999
2022-07-26T15:37:54.587Z,24.969999
2022-07-26T15:39:15.888Z,24.969999
2022-07-26T15:40:13.752Z,24.969999
